Fesco Vladimir — 5BSL2 — position and weather

sailwx.info

Track history (hours):
 
Tides and Currents Weather Stations Pressure Air Temp Water Temp Dewpoint Dewpoint Depression Visibility Wind Speed Wind Dir Waves Ship Positions

Fesco Vladimir

Last reported at 2014-Oct-24 16:33 UTC. Time now 2014-Oct-24 16:54 UTC.
Position N 09°31' W 013°43'.

Length 184 m; draft 9.9 m.

Type: Cargo ship. MMSI: 209777000.

Date/timePositionNaut miles runAvg speedWind from/ knotsBaromVisibWave heightAir tempDewpointWater temp
2014-Oct-24 16:33N 09°31' W 013°43'0 0.0
2014-Oct-24 15:34N 09°31' W 013°43'0 0.0
2014-Oct-24 14:34N 09°31' W 013°43'0 0.0
2014-Oct-24 13:34N 09°31' W 013°43'0 0.0
2014-Oct-24 12:33N 09°31' W 013°43'0 0.0
2014-Oct-24 11:30N 09°31' W 013°43'0 0.0
2014-Oct-24 10:32N 09°31' W 013°43'0 0.0
2014-Oct-24 09:32N 09°31' W 013°43'0 0.0
2014-Oct-24 08:34N 09°31' W 013°43'1 1.0
2014-Oct-24 07:33N 09°30' W 013°44'4 4.5
2014-Oct-24 06:34N 09°25' W 013°44'3 2.6
2014-Oct-24 05:34N 09°23' W 013°43'1312.8
2014-Oct-24 04:34N 09°14' W 013°52'1615.8
2014-Oct-24 03:32N 09°06' W 014°06'  
2014-Oct-19 21:33N 32°56' W 009°38'16115.8
2014-Oct-19 11:21N 34°49' W 007°19'1215.6
2014-Oct-19 10:33N 34°57' W 007°08'1615.5
2014-Oct-19 09:33N 35°08' W 006°54'1515.3
2014-Oct-19 08:33N 35°19' W 006°41'1715.2
2014-Oct-19 07:26N 35°31' W 006°27'5313.6
2014-Oct-19 03:33N 35°58' W 005°31'16 0.4
2014-Oct-17 07:32N 35°54' W 005°50'  
Track history (hours):
 
Tides and Currents Weather Stations Pressure Air Temp Water Temp Dewpoint Dewpoint Depression Visibility Wind Speed Wind Dir Waves Ship Positions

Fesco Vladimir

Last reported at 2014-Oct-24 16:33 UTC. Time now 2014-Oct-24 16:54 UTC.
Position N 09°31' W 013°43'.

Length 184 m; draft 9.9 m.

Type: Cargo ship. MMSI: 209777000.

Date/timePositionNaut miles runAvg speedWind from/ knotsBaromVisibWave heightAir tempDewpointWater temp
2014-Oct-24 16:33N 09°31' W 013°43'0 0.0
2014-Oct-24 15:34N 09°31' W 013°43'0 0.0
2014-Oct-24 14:34N 09°31' W 013°43'0 0.0
2014-Oct-24 13:34N 09°31' W 013°43'0 0.0
2014-Oct-24 12:33N 09°31' W 013°43'0 0.0
2014-Oct-24 11:30N 09°31' W 013°43'0 0.0
2014-Oct-24 10:32N 09°31' W 013°43'0 0.0
2014-Oct-24 09:32N 09°31' W 013°43'0 0.0
2014-Oct-24 08:34N 09°31' W 013°43'1 1.0
2014-Oct-24 07:33N 09°30' W 013°44'4 4.5
2014-Oct-24 06:34N 09°25' W 013°44'3 2.6
2014-Oct-24 05:34N 09°23' W 013°43'1312.8
2014-Oct-24 04:34N 09°14' W 013°52'1615.8
2014-Oct-24 03:32N 09°06' W 014°06'  
2014-Oct-19 21:33N 32°56' W 009°38'16115.8
2014-Oct-19 11:21N 34°49' W 007°19'1215.6
2014-Oct-19 10:33N 34°57' W 007°08'1615.5
2014-Oct-19 09:33N 35°08' W 006°54'1515.3
2014-Oct-19 08:33N 35°19' W 006°41'1715.2
2014-Oct-19 07:26N 35°31' W 006°27'5313.6
2014-Oct-19 03:33N 35°58' W 005°31'16 0.4
2014-Oct-17 07:32N 35°54' W 005°50'  

Dump ship's entire track history